sensor_id;sensor_type;location;lat;lon;timestamp;temperature;humidity
14934;DHT22;7560;51.364;12.384;2023-02-26T00:02:07;0.40;99.90
14934;DHT22;7560;51.364;12.384;2023-02-26T00:07:11;0.40;99.90
14934;DHT22;7560;51.364;12.384;2023-02-26T00:12:13;0.40;99.90
14934;DHT22;7560;51.364;12.384;2023-02-26T00:22:29;0.30;99.90
14934;DHT22;7560;51.364;12.384;2023-02-26T00:27:31;0.40;99.90
14934;DHT22;7560;51.364;12.384;2023-02-26T00:32:34;0.30;99.90
14934;DHT22;7560;51.364;12.384;2023-02-26T00:42:59;0.40;99.90
14934;DHT22;7560;51.364;12.384;2023-02-26T00:48:37;0.40;99.90
14934;DHT22;7560;51.364;12.384;2023-02-26T00:53:53;0.40;99.90
14934;DHT22;7560;51.364;12.384;2023-02-26T00:58:58;0.20;99.90
14934;DHT22;7560;51.364;12.384;2023-02-26T01:04:00;0.30;99.90
14934;DHT22;7560;51.364;12.384;2023-02-26T01:14:10;0.20;99.90
14934;DHT22;7560;51.364;12.384;2023-02-26T01:19:30;0.30;99.90
14934;DHT22;7560;51.364;12.384;2023-02-26T01:24:34;0.20;99.90
14934;DHT22;7560;51.364;12.384;2023-02-26T01:29:37;0.20;99.90
14934;DHT22;7560;51.364;12.384;2023-02-26T01:40:22;0.20;99.90
14934;DHT22;7560;51.364;12.384;2023-02-26T01:45:35;0.30;99.90
14934;DHT22;7560;51.364;12.384;2023-02-26T01:50:39;0.20;99.90
14934;DHT22;7560;51.364;12.384;2023-02-26T01:55:42;0.20;99.90
14934;DHT22;7560;51.364;12.384;2023-02-26T02:00:44;0.20;99.90
14934;DHT22;7560;51.364;12.384;2023-02-26T02:05:55;0.20;99.90
14934;DHT22;7560;51.364;12.384;2023-02-26T02:10:59;0.10;99.90
14934;DHT22;7560;51.364;12.384;2023-02-26T02:21:53;0.20;99.90
14934;DHT22;7560;51.364;12.384;2023-02-26T02:27:07;0.30;99.90
14934;DHT22;7560;51.364;12.384;2023-02-26T02:32:55;0.20;99.90
14934;DHT22;7560;51.364;12.384;2023-02-26T02:37:47;0.20;99.90
14934;DHT22;7560;51.364;12.384;2023-02-26T02:43:15;0.30;99.90
14934;DHT22;7560;51.364;12.384;2023-02-26T02:48:28;0.40;99.90
14934;DHT22;7560;51.364;12.384;2023-02-26T02:53:56;0.20;99.90
14934;DHT22;7560;51.364;12.384;2023-02-26T03:04:17;0.10;99.90
14934;DHT22;7560;51.364;12.384;2023-02-26T03:09:19;0.00;99.90
14934;DHT22;7560;51.364;12.384;2023-02-26T03:14:21;0.10;99.90
14934;DHT22;7560;51.364;12.384;2023-02-26T03:25:12;0.10;99.90
14934;DHT22;7560;51.364;12.384;2023-02-26T03:30:24;0.00;99.90
14934;DHT22;7560;51.364;12.384;2023-02-26T03:35:48;0.00;99.90
14934;DHT22;7560;51.364;12.384;2023-02-26T03:40:58;-0.10;99.90
14934;DHT22;7560;51.364;12.384;2023-02-26T03:46:04;-0.10;99.90
14934;DHT22;7560;51.364;12.384;2023-02-26T03:51:10;-0.10;99.90
14934;DHT22;7560;51.364;12.384;2023-02-26T04:01:52;0.00;99.90
14934;DHT22;7560;51.364;12.384;2023-02-26T04:06:55;-0.10;99.90
14934;DHT22;7560;51.364;12.384;2023-02-26T04:11:57;-0.10;99.90
14934;DHT22;7560;51.364;12.384;2023-02-26T04:16:59;-0.10;99.90
14934;DHT22;7560;51.364;12.384;2023-02-26T04:22:01;-0.20;99.90
14934;DHT22;7560;51.364;12.384;2023-02-26T04:27:03;-0.20;99.90
14934;DHT22;7560;51.364;12.384;2023-02-26T04:32:05;-0.10;99.90
14934;DHT22;7560;51.364;12.384;2023-02-26T04:37:07;-0.10;99.90
14934;DHT22;7560;51.364;12.384;2023-02-26T04:42:09;0.00;99.90
14934;DHT22;7560;51.364;12.384;2023-02-26T04:47:11;0.00;99.90
14934;DHT22;7560;51.364;12.384;2023-02-26T04:52:13;0.00;99.90
14934;DHT22;7560;51.364;12.384;2023-02-26T04:57:15;0.10;99.90
14934;DHT22;7560;51.364;12.384;2023-02-26T05:02:17;0.10;99.90
14934;DHT22;7560;51.364;12.384;2023-02-26T05:07:19;0.10;99.90
14934;DHT22;7560;51.364;12.384;2023-02-26T05:12:21;0.10;99.90
14934;DHT22;7560;51.364;12.384;2023-02-26T05:17:23;0.10;99.90
14934;DHT22;7560;51.364;12.384;2023-02-26T05:22:25;0.00;99.90
14934;DHT22;7560;51.364;12.384;2023-02-26T05:27:26;-0.10;99.90
14934;DHT22;7560;51.364;12.384;2023-02-26T05:32:28;-0.10;99.90
14934;DHT22;7560;51.364;12.384;2023-02-26T05:37:30;0.00;99.90
14934;DHT22;7560;51.364;12.384;2023-02-26T05:42:32;0.00;99.90
14934;DHT22;7560;51.364;12.384;2023-02-26T05:47:34;0.00;99.90
14934;DHT22;7560;51.364;12.384;2023-02-26T05:52:36;0.00;99.90
14934;DHT22;7560;51.364;12.384;2023-02-26T05:57:38;0.00;99.90
14934;DHT22;7560;51.364;12.384;2023-02-26T06:02:40;0.10;99.90
14934;DHT22;7560;51.364;12.384;2023-02-26T06:07:42;0.20;99.90
14934;DHT22;7560;51.364;12.384;2023-02-26T06:12:44;0.10;99.90
14934;DHT22;7560;51.364;12.384;2023-02-26T06:17:46;0.20;99.90
14934;DHT22;7560;51.364;12.384;2023-02-26T06:22:48;0.20;99.90
14934;DHT22;7560;51.364;12.384;2023-02-26T06:27:49;0.20;99.90
14934;DHT22;7560;51.364;12.384;2023-02-26T06:32:51;0.30;99.90
14934;DHT22;7560;51.364;12.384;2023-02-26T06:37:53;0.40;99.90
14934;DHT22;7560;51.364;12.384;2023-02-26T06:42:55;0.40;99.90
14934;DHT22;7560;51.364;12.384;2023-02-26T06:47:57;0.40;99.90
14934;DHT22;7560;51.364;12.384;2023-02-26T06:52:59;0.50;99.90
14934;DHT22;7560;51.364;12.384;2023-02-26T06:58:01;0.40;99.90
14934;DHT22;7560;51.364;12.384;2023-02-26T07:03:04;0.50;99.90
14934;DHT22;7560;51.364;12.384;2023-02-26T07:08:06;0.50;99.90
14934;DHT22;7560;51.364;12.384;2023-02-26T07:13:08;0.60;99.90
14934;DHT22;7560;51.364;12.384;2023-02-26T07:18:10;0.70;99.90
14934;DHT22;7560;51.364;12.384;2023-02-26T07:23:12;0.70;99.90
14934;DHT22;7560;51.364;12.384;2023-02-26T07:28:14;0.80;99.90
14934;DHT22;7560;51.364;12.384;2023-02-26T07:33:16;0.70;99.90
14934;DHT22;7560;51.364;12.384;2023-02-26T07:38:18;0.80;99.90
14934;DHT22;7560;51.364;12.384;2023-02-26T07:43:20;0.90;99.90
14934;DHT22;7560;51.364;12.384;2023-02-26T07:48:22;0.80;99.90
14934;DHT22;7560;51.364;12.384;2023-02-26T07:53:24;0.90;99.90
14934;DHT22;7560;51.364;12.384;2023-02-26T07:58:26;1.00;99.90
14934;DHT22;7560;51.364;12.384;2023-02-26T08:03:27;1.00;99.90
14934;DHT22;7560;51.364;12.384;2023-02-26T08:08:30;1.00;99.90
14934;DHT22;7560;51.364;12.384;2023-02-26T08:13:33;1.20;99.90
14934;DHT22;7560;51.364;12.384;2023-02-26T08:18:35;1.30;99.90
14934;DHT22;7560;51.364;12.384;2023-02-26T08:23:37;1.40;99.90
14934;DHT22;7560;51.364;12.384;2023-02-26T08:28:40;1.40;99.90
14934;DHT22;7560;51.364;12.384;2023-02-26T08:33:42;1.30;99.90
14934;DHT22;7560;51.364;12.384;2023-02-26T08:38:44;1.30;99.90
14934;DHT22;7560;51.364;12.384;2023-02-26T08:43:46;1.50;99.90
14934;DHT22;7560;51.364;12.384;2023-02-26T08:48:48;1.60;99.90
14934;DHT22;7560;51.364;12.384;2023-02-26T08:53:49;1.60;99.90
14934;DHT22;7560;51.364;12.384;2023-02-26T08:58:51;1.60;99.90
14934;DHT22;7560;51.364;12.384;2023-02-26T09:03:53;1.50;99.90
14934;DHT22;7560;51.364;12.384;2023-02-26T09:08:55;1.60;99.90
14934;DHT22;7560;51.364;12.384;2023-02-26T09:13:57;1.70;99.90
14934;DHT22;7560;51.364;12.384;2023-02-26T09:19:00;1.90;99.90
14934;DHT22;7560;51.364;12.384;2023-02-26T09:24:02;1.80;99.90
14934;DHT22;7560;51.364;12.384;2023-02-26T09:29:03;1.70;99.90
14934;DHT22;7560;51.364;12.384;2023-02-26T09:34:05;2.10;99.90
14934;DHT22;7560;51.364;12.384;2023-02-26T09:39:07;1.90;99.90
14934;DHT22;7560;51.364;12.384;2023-02-26T09:44:16;1.90;99.90
14934;DHT22;7560;51.364;12.384;2023-02-26T09:55:08;2.00;99.90
14934;DHT22;7560;51.364;12.384;2023-02-26T10:11:16;2.70;99.90
14934;DHT22;7560;51.364;12.384;2023-02-26T10:16:24;2.70;99.90
14934;DHT22;7560;51.364;12.384;2023-02-26T10:21:34;2.60;99.90
14934;DHT22;7560;51.364;12.384;2023-02-26T10:26:49;2.60;99.90
14934;DHT22;7560;51.364;12.384;2023-02-26T10:37:32;2.60;99.90
14934;DHT22;7560;51.364;12.384;2023-02-26T10:42:49;2.50;99.90
14934;DHT22;7560;51.364;12.384;2023-02-26T10:53:07;2.90;99.90
14934;DHT22;7560;51.364;12.384;2023-02-26T11:08:32;3.10;99.90
14934;DHT22;7560;51.364;12.384;2023-02-26T11:13:37;3.30;99.90
14934;DHT22;7560;51.364;12.384;2023-02-26T11:18:52;3.40;99.90
14934;DHT22;7560;51.364;12.384;2023-02-26T11:24:01;3.60;99.90
14934;DHT22;7560;51.364;12.384;2023-02-26T11:29:04;4.10;99.90
14934;DHT22;7560;51.364;12.384;2023-02-26T11:34:10;3.80;99.90
14934;DHT22;7560;51.364;12.384;2023-02-26T11:39:24;4.00;99.90
14934;DHT22;7560;51.364;12.384;2023-02-26T11:44:46;4.00;99.90
14934;DHT22;7560;51.364;12.384;2023-02-26T11:50:00;3.90;99.90
14934;DHT22;7560;51.364;12.384;2023-02-26T11:55:21;3.80;99.90
14934;DHT22;7560;51.364;12.384;2023-02-26T12:00:36;3.70;99.90
14934;DHT22;7560;51.364;12.384;2023-02-26T12:05:38;3.90;99.90
14934;DHT22;7560;51.364;12.384;2023-02-26T12:16:33;4.30;99.90
14934;DHT22;7560;51.364;12.384;2023-02-26T12:22:02;4.40;99.90
14934;DHT22;7560;51.364;12.384;2023-02-26T12:43:52;4.10;99.90
14934;DHT22;7560;51.364;12.384;2023-02-26T12:49:24;4.60;99.90
14934;DHT22;7560;51.364;12.384;2023-02-26T13:21:34;3.70;99.90
14934;DHT22;7560;51.364;12.384;2023-02-26T13:26:37;3.90;99.90
14934;DHT22;7560;51.364;12.384;2023-02-26T13:31:59;4.50;99.90
14934;DHT22;7560;51.364;12.384;2023-02-26T13:37:03;4.70;99.90
14934;DHT22;7560;51.364;12.384;2023-02-26T13:42:16;4.60;99.90
14934;DHT22;7560;51.364;12.384;2023-02-26T13:47:45;4.80;99.90
14934;DHT22;7560;51.364;12.384;2023-02-26T13:52:55;5.10;99.90
14934;DHT22;7560;51.364;12.384;2023-02-26T13:57:57;5.10;99.90
14934;DHT22;7560;51.364;12.384;2023-02-26T14:08:27;4.60;99.90
14934;DHT22;7560;51.364;12.384;2023-02-26T14:13:39;4.40;99.90
14934;DHT22;7560;51.364;12.384;2023-02-26T14:23:47;4.60;99.90
14934;DHT22;7560;51.364;12.384;2023-02-26T14:39:30;4.60;99.90
14934;DHT22;7560;51.364;12.384;2023-02-26T14:44:42;4.30;99.90
14934;DHT22;7560;51.364;12.384;2023-02-26T14:49:46;4.10;99.90
14934;DHT22;7560;51.364;12.384;2023-02-26T15:27:35;3.50;99.90
14934;DHT22;7560;51.364;12.384;2023-02-26T15:32:37;3.60;99.90
14934;DHT22;7560;51.364;12.384;2023-02-26T15:37:42;3.70;99.90
14934;DHT22;7560;51.364;12.384;2023-02-26T15:42:44;3.90;99.90
14934;DHT22;7560;51.364;12.384;2023-02-26T15:47:55;4.30;99.90
14934;DHT22;7560;51.364;12.384;2023-02-26T15:53:00;4.70;99.90
14934;DHT22;7560;51.364;12.384;2023-02-26T15:58:05;4.60;99.90
14934;DHT22;7560;51.364;12.384;2023-02-26T16:03:09;4.10;99.90
14934;DHT22;7560;51.364;12.384;2023-02-26T16:08:13;3.80;99.90
14934;DHT22;7560;51.364;12.384;2023-02-26T16:13:30;3.70;99.90
14934;DHT22;7560;51.364;12.384;2023-02-26T16:18:33;3.60;99.90
14934;DHT22;7560;51.364;12.384;2023-02-26T16:23:46;3.50;99.90
14934;DHT22;7560;51.364;12.384;2023-02-26T16:28:54;3.40;99.90
14934;DHT22;7560;51.364;12.384;2023-02-26T16:34:00;3.30;99.90
14934;DHT22;7560;51.364;12.384;2023-02-26T16:49:33;2.80;99.90
14934;DHT22;7560;51.364;12.384;2023-02-26T16:54:39;2.80;99.90
14934;DHT22;7560;51.364;12.384;2023-02-26T16:59:52;2.60;99.90
14934;DHT22;7560;51.364;12.384;2023-02-26T17:04:59;2.50;99.90
14934;DHT22;7560;51.364;12.384;2023-02-26T17:10:22;2.40;99.90
14934;DHT22;7560;51.364;12.384;2023-02-26T17:15:30;2.30;99.90
14934;DHT22;7560;51.364;12.384;2023-02-26T17:20:35;2.20;99.90
14934;DHT22;7560;51.364;12.384;2023-02-26T17:25:46;2.10;99.90
14934;DHT22;7560;51.364;12.384;2023-02-26T17:30:48;1.90;99.90
14934;DHT22;7560;51.364;12.384;2023-02-26T17:35:51;1.80;99.90
14934;DHT22;7560;51.364;12.384;2023-02-26T17:40:56;1.80;99.90
14934;DHT22;7560;51.364;12.384;2023-02-26T17:45:58;1.70;99.90
14934;DHT22;7560;51.364;12.384;2023-02-26T17:51:00;1.70;99.90
14934;DHT22;7560;51.364;12.384;2023-02-26T17:56:03;1.70;99.90
14934;DHT22;7560;51.364;12.384;2023-02-26T18:01:05;1.70;99.90
14934;DHT22;7560;51.364;12.384;2023-02-26T18:06:12;1.70;99.90
14934;DHT22;7560;51.364;12.384;2023-02-26T18:11:16;1.60;99.90
14934;DHT22;7560;51.364;12.384;2023-02-26T18:16:25;1.50;99.90
14934;DHT22;7560;51.364;12.384;2023-02-26T18:21:29;1.50;99.90
14934;DHT22;7560;51.364;12.384;2023-02-26T18:26:32;1.40;99.90
14934;DHT22;7560;51.364;12.384;2023-02-26T18:31:34;1.40;99.90
14934;DHT22;7560;51.364;12.384;2023-02-26T18:36:36;1.30;99.90
14934;DHT22;7560;51.364;12.384;2023-02-26T18:41:40;1.30;99.90
14934;DHT22;7560;51.364;12.384;2023-02-26T18:46:42;1.20;99.90
14934;DHT22;7560;51.364;12.384;2023-02-26T18:51:45;1.10;99.90
14934;DHT22;7560;51.364;12.384;2023-02-26T18:56:47;1.10;99.90
14934;DHT22;7560;51.364;12.384;2023-02-26T19:01:50;1.20;99.90
14934;DHT22;7560;51.364;12.384;2023-02-26T19:06:52;1.10;99.90
14934;DHT22;7560;51.364;12.384;2023-02-26T19:11:55;1.00;99.90
14934;DHT22;7560;51.364;12.384;2023-02-26T19:16:57;1.00;99.90
14934;DHT22;7560;51.364;12.384;2023-02-26T19:21:59;1.00;99.90
14934;DHT22;7560;51.364;12.384;2023-02-26T19:27:02;1.00;99.90
14934;DHT22;7560;51.364;12.384;2023-02-26T19:32:05;0.90;99.90
14934;DHT22;7560;51.364;12.384;2023-02-26T19:37:08;0.90;99.90
14934;DHT22;7560;51.364;12.384;2023-02-26T19:42:11;0.80;99.90
14934;DHT22;7560;51.364;12.384;2023-02-26T19:47:13;0.70;99.90
14934;DHT22;7560;51.364;12.384;2023-02-26T19:52:14;0.70;99.90
14934;DHT22;7560;51.364;12.384;2023-02-26T19:57:16;0.70;99.90
14934;DHT22;7560;51.364;12.384;2023-02-26T20:13:49;0.60;99.90
14934;DHT22;7560;51.364;12.384;2023-02-26T20:18:51;0.50;99.90
14934;DHT22;7560;51.364;12.384;2023-02-26T20:23:53;0.50;99.90
14934;DHT22;7560;51.364;12.384;2023-02-26T20:28:55;0.40;99.90
14934;DHT22;7560;51.364;12.384;2023-02-26T20:33:57;0.40;99.90
14934;DHT22;7560;51.364;12.384;2023-02-26T20:38:59;0.40;99.90
14934;DHT22;7560;51.364;12.384;2023-02-26T20:44:03;0.20;99.90
14934;DHT22;7560;51.364;12.384;2023-02-26T20:49:05;0.20;99.90
14934;DHT22;7560;51.364;12.384;2023-02-26T20:58:23;0.20;99.90
14934;DHT22;7560;51.364;12.384;2023-02-26T21:03:25;0.10;99.90
14934;DHT22;7560;51.364;12.384;2023-02-26T21:08:27;0.10;99.90
14934;DHT22;7560;51.364;12.384;2023-02-26T21:13:29;0.00;99.90
14934;DHT22;7560;51.364;12.384;2023-02-26T21:18:31;0.00;99.90
14934;DHT22;7560;51.364;12.384;2023-02-26T21:23:33;0.00;99.90
14934;DHT22;7560;51.364;12.384;2023-02-26T21:28:35;-0.10;99.90
14934;DHT22;7560;51.364;12.384;2023-02-26T21:33:37;-0.10;99.90
14934;DHT22;7560;51.364;12.384;2023-02-26T21:38:39;-0.10;99.90
14934;DHT22;7560;51.364;12.384;2023-02-26T21:43:41;0.00;99.90
14934;DHT22;7560;51.364;12.384;2023-02-26T21:48:43;-0.20;99.90
14934;DHT22;7560;51.364;12.384;2023-02-26T21:53:47;-0.20;99.90
14934;DHT22;7560;51.364;12.384;2023-02-26T21:58:50;-0.20;99.90
14934;DHT22;7560;51.364;12.384;2023-02-26T22:03:52;-0.20;99.90
14934;DHT22;7560;51.364;12.384;2023-02-26T22:08:54;-0.30;99.90
14934;DHT22;7560;51.364;12.384;2023-02-26T22:13:56;-0.30;99.90
14934;DHT22;7560;51.364;12.384;2023-02-26T22:18:58;-0.40;99.90
14934;DHT22;7560;51.364;12.384;2023-02-26T22:24:01;-0.40;99.90
14934;DHT22;7560;51.364;12.384;2023-02-26T22:29:04;-0.40;99.90
14934;DHT22;7560;51.364;12.384;2023-02-26T22:34:06;-0.50;99.90
14934;DHT22;7560;51.364;12.384;2023-02-26T22:39:08;-0.50;99.90
14934;DHT22;7560;51.364;12.384;2023-02-26T22:44:10;-0.50;99.90
14934;DHT22;7560;51.364;12.384;2023-02-26T22:49:12;-0.50;99.90
14934;DHT22;7560;51.364;12.384;2023-02-26T22:54:14;-0.50;99.90
14934;DHT22;7560;51.364;12.384;2023-02-26T22:59:16;-0.50;99.90
14934;DHT22;7560;51.364;12.384;2023-02-26T23:04:18;-0.60;99.90
14934;DHT22;7560;51.364;12.384;2023-02-26T23:09:20;-0.70;99.90
14934;DHT22;7560;51.364;12.384;2023-02-26T23:14:22;-0.60;99.90
14934;DHT22;7560;51.364;12.384;2023-02-26T23:19:25;-0.60;99.90
14934;DHT22;7560;51.364;12.384;2023-02-26T23:24:27;-0.60;99.90
14934;DHT22;7560;51.364;12.384;2023-02-26T23:29:28;-0.70;99.90
14934;DHT22;7560;51.364;12.384;2023-02-26T23:34:30;-0.80;99.90
14934;DHT22;7560;51.364;12.384;2023-02-26T23:39:32;-0.80;99.90
14934;DHT22;7560;51.364;12.384;2023-02-26T23:44:34;-0.70;99.90
14934;DHT22;7560;51.364;12.384;2023-02-26T23:49:36;-0.70;99.90
14934;DHT22;7560;51.364;12.384;2023-02-26T23:54:38;-0.80;99.90
14934;DHT22;7560;51.364;12.384;2023-02-26T23:59:42;-0.80;99.90
